PWSweather.com
Personal Weather Stations
Station Observations
KCOBLACK1
Chalet Park, Black Hawk, CO 80422

Chalet ParkBlack Hawk, CO 80422

Lat: 39.8294, Lon: -105.48

Elevation: 9370

Station Type: Vantage Pro2

http://www.oscaranddeb.com/weather

High Low Average
Temperature 41.7°F5.4°F 24.0°F-4.4°F 32.8°F0.4°F
Dew Point 18.0°F-7.8°F 7.1°F-13.8°F 13.0°F-10.6°F
Winds 23.0 mph 37.0 mph 2.0 mph 3.2 mph 11.0 mph 17.7 mph
Wind Gusts 57.0 mph91.7 mph 6.0 mph9.7 mph 25.5 mph41.0 mph
Humidity 70% 25% 45%
Pressure 30.08 in1018.60 in 29.56 in1001.00 in -
Precipitation 0.00 in0.00 in - -
Hour Temp Dew Point Humidity Winds Wind Gusts Pressure Precip Precip Rate Daily Precip Total
12:00 AM 27.5°F-2.5°C 18.0°F-7.8°C 67% 10.0 mph 16.1 kmh 31.0 mph49.9 kmh 29.57 in1001.4 mb 0.00 in0.0 mm 0.00 in0.0 mm 0.00 in0.0 mm
12:05 AM 27.3°F-2.6°C 17.5°F-8.1°C 66% 13.0 mph 20.9 kmh 38.0 mph61.2 kmh 29.58 in1001.7 mb 0.00 in0.0 mm 0.00 in0.0 mm 0.00 in0.0 mm
12:10 AM 27.1°F-2.7°C 17.6°F-8.0°C 67% 11.0 mph 17.7 kmh 39.0 mph62.8 kmh 29.58 in1001.7 mb 0.00 in0.0 mm 0.00 in0.0 mm 0.00 in0.0 mm
12:15 AM 27.1°F-2.7°C 17.6°F-8.0°C 67% 11.0 mph 17.7 kmh 25.0 mph40.2 kmh 29.59 in1002.0 mb 0.00 in0.0 mm 0.00 in0.0 mm 0.00 in0.0 mm
12:20 AM 26.9°F-2.8°C 17.4°F-8.1°C 67% 8.0 mph 12.9 kmh 32.0 mph51.5 kmh 29.58 in1001.7 mb 0.00 in0.0 mm 0.00 in0.0 mm 0.00 in0.0 mm
12:25 AM 26.8°F-2.9°C 17.0°F-8.3°C 66% 9.0 mph 14.5 kmh 27.0 mph43.5 kmh 29.57 in1001.4 mb 0.00 in0.0 mm 0.00 in0.0 mm 0.00 in0.0 mm
12:30 AM 26.7°F-2.9°C 16.5°F-8.6°C 65% 10.0 mph 16.1 kmh 34.0 mph54.7 kmh 29.57 in1001.4 mb 0.00 in0.0 mm 0.00 in0.0 mm 0.00 in0.0 mm
12:35 AM 26.7°F-2.9°C 16.5°F-8.6°C 65% 10.0 mph 16.1 kmh 30.0 mph48.3 kmh 29.58 in1001.7 mb 0.00 in0.0 mm 0.00 in0.0 mm 0.00 in0.0 mm
12:40 AM 26.7°F-2.9°C 15.8°F-9.0°C 63% 11.0 mph 17.7 kmh 38.0 mph61.2 kmh 29.57 in1001.4 mb 0.00 in0.0 mm 0.00 in0.0 mm 0.00 in0.0 mm
12:45 AM 26.9°F-2.8°C 15.3°F-9.3°C 61% 11.0 mph 17.7 kmh 41.0 mph66.0 kmh 29.57 in1001.4 mb 0.00 in0.0 mm 0.00 in0.0 mm 0.00 in0.0 mm
12:50 AM 26.9°F-2.8°C 14.9°F-9.5°C 60% 13.0 mph 20.9 kmh 41.0 mph66.0 kmh 29.58 in1001.7 mb 0.00 in0.0 mm 0.00 in0.0 mm 0.00 in0.0 mm
12:55 AM 26.7°F-2.9°C 15.1°F-9.4°C 61% 9.0 mph 14.5 kmh 28.0 mph45.1 kmh 29.58 in1001.7 mb 0.00 in0.0 mm 0.00 in0.0 mm 0.00 in0.0 mm
01:00 AM 26.6°F-3.0°C 14.6°F-9.7°C 60% 8.0 mph 12.9 kmh 28.0 mph45.1 kmh 29.57 in1001.4 mb 0.00 in0.0 mm 0.00 in0.0 mm 0.00 in0.0 mm
01:05 AM 26.4°F-3.1°C 14.8°F-9.6°C 61% 13.0 mph 20.9 kmh 33.0 mph53.1 kmh 29.58 in1001.7 mb 0.00 in0.0 mm 0.00 in0.0 mm 0.00 in0.0 mm
01:10 AM 26.3°F-3.2°C 14.3°F-9.8°C 60% 15.0 mph 24.1 kmh 38.0 mph61.2 kmh 29.57 in1001.4 mb 0.00 in0.0 mm 0.00 in0.0 mm 0.00 in0.0 mm
01:15 AM 26.2°F-3.2°C 14.2°F-9.9°C 60% 14.0 mph 22.5 kmh 40.0 mph64.4 kmh 29.56 in1001.0 mb 0.00 in0.0 mm 0.00 in0.0 mm 0.00 in0.0 mm
01:20 AM 26.2°F-3.2°C 13.9°F-10.1°C 59% 13.0 mph 20.9 kmh 39.0 mph62.8 kmh 29.56 in1001.0 mb 0.00 in0.0 mm 0.00 in0.0 mm 0.00 in0.0 mm
01:25 AM 26.1°F-3.3°C 14.1°F-9.9°C 60% 18.0 mph 29.0 kmh 45.0 mph72.4 kmh 29.58 in1001.7 mb 0.00 in0.0 mm 0.00 in0.0 mm 0.00 in0.0 mm
01:30 AM 25.9°F-3.4°C 14.0°F-10.0°C 60% 14.0 mph 22.5 kmh 33.0 mph53.1 kmh 29.57 in1001.4 mb 0.00 in0.0 mm 0.00 in0.0 mm 0.00 in0.0 mm
01:35 AM 25.9°F-3.4°C 13.6°F-10.2°C 59% 11.0 mph 17.7 kmh 37.0 mph59.5 kmh 29.56 in1001.0 mb 0.00 in0.0 mm 0.00 in0.0 mm 0.00 in0.0 mm
01:40 AM 26.0°F-3.3°C 14.0°F-10.0°C 60% 16.0 mph 25.7 kmh 39.0 mph62.8 kmh 29.57 in1001.4 mb 0.00 in0.0 mm 0.00 in0.0 mm 0.00 in0.0 mm
01:45 AM 25.9°F-3.4°C 14.0°F-10.0°C 60% 9.0 mph 14.5 kmh 28.0 mph45.1 kmh 29.60 in1002.4 mb 0.00 in0.0 mm 0.00 in0.0 mm 0.00 in0.0 mm
01:50 AM 26.0°F-3.3°C 13.3°F-10.4°C 58% 17.0 mph 27.4 kmh 47.0 mph75.6 kmh 29.59 in1002.0 mb 0.00 in0.0 mm 0.00 in0.0 mm 0.00 in0.0 mm
01:55 AM 26.1°F-3.3°C 12.6°F-10.8°C 56% 15.0 mph 24.1 kmh 57.0 mph91.7 kmh 29.58 in1001.7 mb 0.00 in0.0 mm 0.00 in0.0 mm 0.00 in0.0 mm
02:00 AM 26.0°F-3.3°C 12.9°F-10.6°C 57% 13.0 mph 20.9 kmh 57.0 mph91.7 kmh 29.59 in1002.0 mb 0.00 in0.0 mm 0.00 in0.0 mm 0.00 in0.0 mm
02:05 AM 26.0°F-3.3°C 13.7°F-10.2°C 59% 15.0 mph 24.1 kmh 40.0 mph64.4 kmh 29.62 in1003.0 mb 0.00 in0.0 mm 0.00 in0.0 mm 0.00 in0.0 mm
02:10 AM 26.0°F-3.3°C 14.4°F-9.8°C 61% 15.0 mph 24.1 kmh 34.0 mph54.7 kmh 29.64 in1003.7 mb 0.00 in0.0 mm 0.00 in0.0 mm 0.00 in0.0 mm
02:15 AM 25.8°F-3.4°C 14.6°F-9.7°C 62% 10.0 mph 16.1 kmh 28.0 mph45.1 kmh 29.64 in1003.7 mb 0.00 in0.0 mm 0.00 in0.0 mm 0.00 in0.0 mm
02:20 AM 25.6°F-3.6°C 14.8°F-9.6°C 63% 8.0 mph 12.9 kmh 22.0 mph35.4 kmh 29.67 in1004.7 mb 0.00 in0.0 mm 0.00 in0.0 mm 0.00 in0.0 mm
02:25 AM 25.5°F-3.6°C 14.7°F-9.6°C 63% 6.0 mph 9.7 kmh 23.0 mph37.0 kmh 29.66 in1004.4 mb 0.00 in0.0 mm 0.00 in0.0 mm 0.00 in0.0 mm
02:30 AM 25.6°F-3.6°C 13.7°F-10.2°C 60% 13.0 mph 20.9 kmh 40.0 mph64.4 kmh 29.67 in1004.7 mb 0.00 in0.0 mm 0.00 in0.0 mm 0.00 in0.0 mm
02:35 AM 25.5°F-3.6°C 13.9°F-10.1°C 61% 6.0 mph 9.7 kmh 40.0 mph64.4 kmh 29.66 in1004.4 mb 0.00 in0.0 mm 0.00 in0.0 mm 0.00 in0.0 mm
02:40 AM 25.7°F-3.5°C 13.4°F-10.3°C 59% 15.0 mph 24.1 kmh 37.0 mph59.5 kmh 29.66 in1004.4 mb 0.00 in0.0 mm 0.00 in0.0 mm 0.00 in0.0 mm
02:45 AM 25.6°F-3.6°C 13.7°F-10.2°C 60% 9.0 mph 14.5 kmh 24.0 mph38.6 kmh 29.66 in1004.4 mb 0.00 in0.0 mm 0.00 in0.0 mm 0.00 in0.0 mm
02:50 AM 25.5°F-3.6°C 13.6°F-10.2°C 60% 11.0 mph 17.7 kmh 35.0 mph56.3 kmh 29.66 in1004.4 mb 0.00 in0.0 mm 0.00 in0.0 mm 0.00 in0.0 mm
02:55 AM 25.5°F-3.6°C 13.6°F-10.2°C 60% 15.0 mph 24.1 kmh 38.0 mph61.2 kmh 29.65 in1004.1 mb 0.00 in0.0 mm 0.00 in0.0 mm 0.00 in0.0 mm
03:00 AM 25.5°F-3.6°C 13.6°F-10.2°C 60% 13.0 mph 20.9 kmh 39.0 mph62.8 kmh 29.63 in1003.4 mb 0.00 in0.0 mm 0.00 in0.0 mm 0.00 in0.0 mm
03:05 AM 25.6°F-3.6°C 13.7°F-10.2°C 60% 15.0 mph 24.1 kmh 40.0 mph64.4 kmh 29.64 in1003.7 mb 0.00 in0.0 mm 0.00 in0.0 mm 0.00 in0.0 mm
03:10 AM 25.5°F-3.6°C 13.6°F-10.2°C 60% 17.0 mph 27.4 kmh 35.0 mph56.3 kmh 29.64 in1003.7 mb 0.00 in0.0 mm 0.00 in0.0 mm 0.00 in0.0 mm
03:15 AM 25.6°F-3.6°C 12.5°F-10.8°C 57% 21.0 mph 33.8 kmh 46.0 mph74.0 kmh 29.66 in1004.4 mb 0.00 in0.0 mm 0.00 in0.0 mm 0.00 in0.0 mm
03:20 AM 25.4°F-3.7°C 13.5°F-10.3°C 60% 19.0 mph 30.6 kmh 40.0 mph64.4 kmh 29.66 in1004.4 mb 0.00 in0.0 mm 0.00 in0.0 mm 0.00 in0.0 mm
03:25 AM 25.4°F-3.7°C 13.1°F-10.5°C 59% 19.0 mph 30.6 kmh 35.0 mph56.3 kmh 29.68 in1005.1 mb 0.00 in0.0 mm 0.00 in0.0 mm 0.00 in0.0 mm
03:30 AM 25.4°F-3.7°C 12.7°F-10.7°C 58% 19.0 mph 30.6 kmh 40.0 mph64.4 kmh 29.67 in1004.7 mb 0.00 in0.0 mm 0.00 in0.0 mm 0.00 in0.0 mm
03:35 AM 25.3°F-3.7°C 12.6°F-10.8°C 58% 15.0 mph 24.1 kmh 36.0 mph57.9 kmh 29.67 in1004.7 mb 0.00 in0.0 mm 0.00 in0.0 mm 0.00 in0.0 mm
03:40 AM 25.3°F-3.7°C 12.6°F-10.8°C 58% 17.0 mph WNW27.4 kmh WNW 43.0 mph69.2 kmh 29.66 in1004.4 mb 0.00 in0.0 mm 0.00 in0.0 mm 0.00 in0.0 mm
03:45 AM 25.3°F-3.7°C 12.6°F-10.8°C 58% 17.0 mph WNW27.4 kmh WNW 34.0 mph54.7 kmh 29.69 in1005.4 mb 0.00 in0.0 mm 0.00 in0.0 mm 0.00 in0.0 mm
03:50 AM 25.1°F-3.8°C 13.6°F-10.2°C 61% 11.0 mph 17.7 kmh 28.0 mph45.1 kmh 29.70 in1005.8 mb 0.00 in0.0 mm 0.00 in0.0 mm 0.00 in0.0 mm
03:55 AM 25.1°F-3.8°C 13.6°F-10.2°C 61% 12.0 mph NW19.3 kmh NW 34.0 mph54.7 kmh 29.70 in1005.8 mb 0.00 in0.0 mm 0.00 in0.0 mm 0.00 in0.0 mm
04:00 AM 25.1°F-3.8°C 12.8°F-10.7°C 59% 16.0 mph W25.7 kmh W 35.0 mph56.3 kmh 29.70 in1005.8 mb 0.00 in0.0 mm 0.00 in0.0 mm 0.00 in0.0 mm
04:05 AM 25.1°F-3.8°C 13.6°F-10.2°C 61% 15.0 mph WNW24.1 kmh WNW 35.0 mph56.3 kmh 29.70 in1005.8 mb 0.00 in0.0 mm 0.00 in0.0 mm 0.00 in0.0 mm
04:10 AM 25.2°F-3.8°C 13.3°F-10.4°C 60% 15.0 mph WNW24.1 kmh WNW 35.0 mph56.3 kmh 29.71 in1006.1 mb 0.00 in0.0 mm 0.00 in0.0 mm 0.00 in0.0 mm
04:15 AM 25.1°F-3.8°C 13.2°F-10.4°C 60% 15.0 mph W24.1 kmh W 30.0 mph48.3 kmh 29.71 in1006.1 mb 0.00 in0.0 mm 0.00 in0.0 mm 0.00 in0.0 mm
04:20 AM 24.9°F-3.9°C 13.8°F-10.1°C 62% 10.0 mph WNW16.1 kmh WNW 28.0 mph45.1 kmh 29.73 in1006.8 mb 0.00 in0.0 mm 0.00 in0.0 mm 0.00 in0.0 mm
04:25 AM 24.8°F-4.0°C 13.7°F-10.2°C 62% 16.0 mph NW25.7 kmh NW 39.0 mph62.8 kmh 29.74 in1007.1 mb 0.00 in0.0 mm 0.00 in0.0 mm 0.00 in0.0 mm
04:30 AM 24.8°F-4.0°C 14.0°F-10.0°C 63% 17.0 mph WNW27.4 kmh WNW 30.0 mph48.3 kmh 29.75 in1007.5 mb 0.00 in0.0 mm 0.00 in0.0 mm 0.00 in0.0 mm
04:35 AM 24.6°F-4.1°C 14.2°F-9.9°C 64% 11.0 mph W17.7 kmh W 28.0 mph45.1 kmh 29.75 in1007.5 mb 0.00 in0.0 mm 0.00 in0.0 mm 0.00 in0.0 mm
04:40 AM 24.7°F-4.1°C 14.3°F-9.8°C 64% 12.0 mph W19.3 kmh W 29.0 mph46.7 kmh 29.77 in1008.1 mb 0.00 in0.0 mm 0.00 in0.0 mm 0.00 in0.0 mm
04:45 AM 24.7°F-4.1°C 13.6°F-10.2°C 62% 7.0 mph NW11.3 kmh NW 19.0 mph30.6 kmh 29.78 in1008.5 mb 0.00 in0.0 mm 0.00 in0.0 mm 0.00 in0.0 mm
04:50 AM 24.7°F-4.1°C 13.2°F-10.4°C 61% 7.0 mph WNW11.3 kmh WNW 23.0 mph37.0 kmh 29.79 in1008.8 mb 0.00 in0.0 mm 0.00 in0.0 mm 0.00 in0.0 mm
04:55 AM 24.7°F-4.1°C 13.2°F-10.4°C 61% 8.0 mph NW12.9 kmh NW 17.0 mph27.4 kmh 29.79 in1008.8 mb 0.00 in0.0 mm 0.00 in0.0 mm 0.00 in0.0 mm
05:00 AM 24.8°F-4.0°C 13.7°F-10.2°C 62% 8.0 mph NW12.9 kmh NW 21.0 mph33.8 kmh 29.80 in1009.1 mb 0.00 in0.0 mm 0.00 in0.0 mm 0.00 in0.0 mm
05:05 AM 24.8°F-4.0°C 13.7°F-10.2°C 62% 10.0 mph NW16.1 kmh NW 22.0 mph35.4 kmh 29.80 in1009.1 mb 0.00 in0.0 mm 0.00 in0.0 mm 0.00 in0.0 mm
05:10 AM 24.8°F-4.0°C 14.0°F-10.0°C 63% 9.0 mph WNW14.5 kmh WNW 26.0 mph41.8 kmh 29.82 in1009.8 mb 0.00 in0.0 mm 0.00 in0.0 mm 0.00 in0.0 mm
05:15 AM 24.7°F-4.1°C 14.3°F-9.8°C 64% 12.0 mph NW19.3 kmh NW 25.0 mph40.2 kmh 29.84 in1010.5 mb 0.00 in0.0 mm 0.00 in0.0 mm 0.00 in0.0 mm
05:20 AM 24.5°F-4.2°C 15.1°F-9.4°C 67% 9.0 mph NW14.5 kmh NW 20.0 mph32.2 kmh 29.87 in1011.5 mb 0.00 in0.0 mm 0.00 in0.0 mm 0.00 in0.0 mm
05:25 AM 24.4°F-4.2°C 15.4°F-9.2°C 68% 8.0 mph WNW12.9 kmh WNW 18.0 mph29.0 kmh 29.88 in1011.9 mb 0.00 in0.0 mm 0.00 in0.0 mm 0.00 in0.0 mm
05:30 AM 24.2°F-4.3°C 15.9°F-8.9°C 70% 6.0 mph NW9.7 kmh NW 14.0 mph22.5 kmh 29.88 in1011.9 mb 0.00 in0.0 mm 0.00 in0.0 mm 0.00 in0.0 mm
05:35 AM 24.0°F-4.4°C 15.7°F-9.1°C 70% 6.0 mph WNW9.7 kmh WNW 14.0 mph22.5 kmh 29.87 in1011.5 mb 0.00 in0.0 mm 0.00 in0.0 mm 0.00 in0.0 mm
05:40 AM 24.0°F-4.4°C 15.3°F-9.3°C 69% 7.0 mph WNW11.3 kmh WNW 16.0 mph25.7 kmh 29.86 in1011.2 mb 0.00 in0.0 mm 0.00 in0.0 mm 0.00 in0.0 mm
05:45 AM 24.1°F-4.4°C 15.1°F-9.4°C 68% 9.0 mph W14.5 kmh W 26.0 mph41.8 kmh 29.85 in1010.8 mb 0.00 in0.0 mm 0.00 in0.0 mm 0.00 in0.0 mm
05:50 AM 24.2°F-4.3°C 14.5°F-9.7°C 66% 10.0 mph WNW16.1 kmh WNW 22.0 mph35.4 kmh 29.85 in1010.8 mb 0.00 in0.0 mm 0.00 in0.0 mm 0.00 in0.0 mm
05:55 AM 24.2°F-4.3°C 14.2°F-9.9°C 65% 8.0 mph W12.9 kmh W 31.0 mph49.9 kmh 29.84 in1010.5 mb 0.00 in0.0 mm 0.00 in0.0 mm 0.00 in0.0 mm
06:00 AM 24.3°F-4.3°C 13.9°F-10.1°C 64% 10.0 mph W16.1 kmh W 26.0 mph41.8 kmh 29.83 in1010.2 mb 0.00 in0.0 mm 0.00 in0.0 mm 0.00 in0.0 mm
06:05 AM 24.6°F-4.1°C 13.5°F-10.3°C 62% 12.0 mph WNW19.3 kmh WNW 30.0 mph48.3 kmh 29.83 in1010.2 mb 0.00 in0.0 mm 0.00 in0.0 mm 0.00 in0.0 mm
06:10 AM 24.8°F-4.0°C 12.5°F-10.8°C 59% 13.0 mph WNW20.9 kmh WNW 35.0 mph56.3 kmh 29.82 in1009.8 mb 0.00 in0.0 mm 0.00 in0.0 mm 0.00 in0.0 mm
06:15 AM 24.9°F-3.9°C 12.6°F-10.8°C 59% 15.0 mph NW24.1 kmh NW 40.0 mph64.4 kmh 29.84 in1010.5 mb 0.00 in0.0 mm 0.00 in0.0 mm 0.00 in0.0 mm
06:20 AM 24.8°F-4.0°C 12.5°F-10.8°C 59% 13.0 mph NW20.9 kmh NW 29.0 mph46.7 kmh 29.84 in1010.5 mb 0.00 in0.0 mm 0.00 in0.0 mm 0.00 in0.0 mm
06:25 AM 24.9°F-3.9°C 12.2°F-11.0°C 58% 13.0 mph WNW20.9 kmh WNW 33.0 mph53.1 kmh 29.84 in1010.5 mb 0.00 in0.0 mm 0.00 in0.0 mm 0.00 in0.0 mm
06:30 AM 24.8°F-4.0°C 12.5°F-10.8°C 59% 14.0 mph WNW22.5 kmh WNW 30.0 mph48.3 kmh 29.85 in1010.8 mb 0.00 in0.0 mm 0.00 in0.0 mm 0.00 in0.0 mm
06:35 AM 24.8°F-4.0°C 12.5°F-10.8°C 59% 13.0 mph 20.9 kmh 33.0 mph53.1 kmh 29.84 in1010.5 mb 0.00 in0.0 mm 0.00 in0.0 mm 0.00 in0.0 mm
06:40 AM 24.7°F-4.1°C 13.2°F-10.4°C 61% 11.0 mph 17.7 kmh 28.0 mph45.1 kmh 29.85 in1010.8 mb 0.00 in0.0 mm 0.00 in0.0 mm 0.00 in0.0 mm
06:45 AM 24.5°F-4.2°C 13.4°F-10.3°C 62% 11.0 mph 17.7 kmh 23.0 mph37.0 kmh 29.86 in1011.2 mb 0.00 in0.0 mm 0.00 in0.0 mm 0.00 in0.0 mm
06:50 AM 24.4°F-4.2°C 13.6°F-10.2°C 63% 9.0 mph 14.5 kmh 21.0 mph33.8 kmh 29.86 in1011.2 mb 0.00 in0.0 mm 0.00 in0.0 mm 0.00 in0.0 mm
06:55 AM 24.5°F-4.2°C 13.7°F-10.2°C 63% 10.0 mph 16.1 kmh 22.0 mph35.4 kmh 29.86 in1011.2 mb 0.00 in0.0 mm 0.00 in0.0 mm 0.00 in0.0 mm
07:00 AM 24.5°F-4.2°C 14.1°F-9.9°C 64% 11.0 mph 17.7 kmh 26.0 mph41.8 kmh 29.87 in1011.5 mb 0.00 in0.0 mm 0.00 in0.0 mm 0.00 in0.0 mm
07:05 AM 24.5°F-4.2°C 14.1°F-9.9°C 64% 11.0 mph 17.7 kmh 24.0 mph38.6 kmh 29.87 in1011.5 mb 0.00 in0.0 mm 0.00 in0.0 mm 0.00 in0.0 mm
07:10 AM 24.6°F-4.1°C 14.2°F-9.9°C 64% 10.0 mph 16.1 kmh 24.0 mph38.6 kmh 29.87 in1011.5 mb 0.00 in0.0 mm 0.00 in0.0 mm 0.00 in0.0 mm
07:15 AM 24.7°F-4.1°C 14.3°F-9.8°C 64% 11.0 mph 17.7 kmh 24.0 mph38.6 kmh 29.88 in1011.9 mb 0.00 in0.0 mm 0.00 in0.0 mm 0.00 in0.0 mm
07:20 AM 24.8°F-4.0°C 14.0°F-10.0°C 63% 8.0 mph 12.9 kmh 19.0 mph30.6 kmh 29.90 in1012.5 mb 0.00 in0.0 mm 0.00 in0.0 mm 0.00 in0.0 mm
07:25 AM 24.9°F-3.9°C 13.8°F-10.1°C 62% 8.0 mph 12.9 kmh 22.0 mph35.4 kmh 29.90 in1012.5 mb 0.00 in0.0 mm 0.00 in0.0 mm 0.00 in0.0 mm
07:30 AM 25.1°F-3.8°C 13.9°F-10.1°C 62% 8.0 mph 12.9 kmh 17.0 mph27.4 kmh 29.92 in1013.2 mb 0.00 in0.0 mm 0.00 in0.0 mm 0.00 in0.0 mm
07:35 AM 25.2°F-3.8°C 14.0°F-10.0°C 62% 7.0 mph 11.3 kmh 17.0 mph27.4 kmh 29.92 in1013.2 mb 0.00 in0.0 mm 0.00 in0.0 mm 0.00 in0.0 mm
07:40 AM 25.2°F-3.8°C 14.4°F-9.8°C 63% 7.0 mph 11.3 kmh 17.0 mph27.4 kmh 29.92 in1013.2 mb 0.00 in0.0 mm 0.00 in0.0 mm 0.00 in0.0 mm
07:45 AM 25.4°F-3.7°C 14.2°F-9.9°C 62% 6.0 mph 9.7 kmh 14.0 mph22.5 kmh 29.93 in1013.5 mb 0.00 in0.0 mm 0.00 in0.0 mm 0.00 in0.0 mm
07:50 AM 25.4°F-3.7°C 14.2°F-9.9°C 62% 5.0 mph 8.0 kmh 14.0 mph22.5 kmh 29.93 in1013.5 mb 0.00 in0.0 mm 0.00 in0.0 mm 0.00 in0.0 mm
07:55 AM 25.6°F-3.6°C 14.4°F-9.8°C 62% 7.0 mph 11.3 kmh 17.0 mph27.4 kmh 29.93 in1013.5 mb 0.00 in0.0 mm 0.00 in0.0 mm 0.00 in0.0 mm
08:00 AM 25.7°F-3.5°C 14.5°F-9.7°C 62% 9.0 mph 14.5 kmh 22.0 mph35.4 kmh 29.92 in1013.2 mb 0.00 in0.0 mm 0.00 in0.0 mm 0.00 in0.0 mm
08:05 AM 25.9°F-3.4°C 14.3°F-9.8°C 61% 10.0 mph 16.1 kmh 27.0 mph43.5 kmh 29.92 in1013.2 mb 0.00 in0.0 mm 0.00 in0.0 mm 0.00 in0.0 mm
08:10 AM 26.2°F-3.2°C 14.2°F-9.9°C 60% 11.0 mph 17.7 kmh 22.0 mph35.4 kmh 29.91 in1012.9 mb 0.00 in0.0 mm 0.00 in0.0 mm 0.00 in0.0 mm
08:15 AM 26.3°F-3.2°C 13.6°F-10.2°C 58% 12.0 mph 19.3 kmh 31.0 mph49.9 kmh 29.91 in1012.9 mb 0.00 in0.0 mm 0.00 in0.0 mm 0.00 in0.0 mm
08:20 AM 26.6°F-3.0°C 13.4°F-10.3°C 57% 10.0 mph 16.1 kmh 26.0 mph41.8 kmh 29.92 in1013.2 mb 0.00 in0.0 mm 0.00 in0.0 mm 0.00 in0.0 mm
08:25 AM 26.9°F-2.8°C 13.3°F-10.4°C 56% 13.0 mph 20.9 kmh 29.0 mph46.7 kmh 29.91 in1012.9 mb 0.00 in0.0 mm 0.00 in0.0 mm 0.00 in0.0 mm
08:30 AM 27.2°F-2.7°C 12.8°F-10.7°C 54% 11.0 mph 17.7 kmh 23.0 mph37.0 kmh 29.91 in1012.9 mb 0.00 in0.0 mm 0.00 in0.0 mm 0.00 in0.0 mm
08:35 AM 27.5°F-2.5°C 12.6°F-10.8°C 53% 13.0 mph 20.9 kmh 32.0 mph51.5 kmh 29.92 in1013.2 mb 0.00 in0.0 mm 0.00 in0.0 mm 0.00 in0.0 mm
08:40 AM 27.8°F-2.3°C 12.9°F-10.6°C 53% 11.0 mph 17.7 kmh 33.0 mph53.1 kmh 29.91 in1012.9 mb 0.00 in0.0 mm 0.00 in0.0 mm 0.00 in0.0 mm
08:45 AM 27.8°F-2.3°C 12.9°F-10.6°C 53% 14.0 mph 22.5 kmh 32.0 mph51.5 kmh 29.92 in1013.2 mb 0.00 in0.0 mm 0.00 in0.0 mm 0.00 in0.0 mm
08:50 AM 28.1°F-2.2°C 12.8°F-10.7°C 52% 12.0 mph 19.3 kmh 38.0 mph61.2 kmh 29.91 in1012.9 mb 0.00 in0.0 mm 0.00 in0.0 mm 0.00 in0.0 mm
08:55 AM 28.5°F-1.9°C 12.3°F-10.9°C 50% 11.0 mph 17.7 kmh 27.0 mph43.5 kmh 29.90 in1012.5 mb 0.00 in0.0 mm 0.00 in0.0 mm 0.00 in0.0 mm
09:00 AM 28.7°F-1.8°C 12.4°F-10.9°C 50% 12.0 mph 19.3 kmh 29.0 mph46.7 kmh 29.90 in1012.5 mb 0.00 in0.0 mm 0.00 in0.0 mm 0.00 in0.0 mm
09:05 AM 28.8°F-1.8°C 12.5°F-10.8°C 50% 10.0 mph 16.1 kmh 42.0 mph67.6 kmh 29.91 in1012.9 mb 0.00 in0.0 mm 0.00 in0.0 mm 0.00 in0.0 mm
09:10 AM 29.1°F-1.6°C 12.4°F-10.9°C 49% 16.0 mph 25.7 kmh 38.0 mph61.2 kmh 29.91 in1012.9 mb 0.00 in0.0 mm 0.00 in0.0 mm 0.00 in0.0 mm
09:15 AM 29.0°F-1.7°C 12.7°F-10.7°C 50% 18.0 mph 29.0 kmh 32.0 mph51.5 kmh 29.92 in1013.2 mb 0.00 in0.0 mm 0.00 in0.0 mm 0.00 in0.0 mm
09:20 AM 29.1°F-1.6°C 12.8°F-10.7°C 50% 18.0 mph 29.0 kmh 36.0 mph57.9 kmh 29.92 in1013.2 mb 0.00 in0.0 mm 0.00 in0.0 mm 0.00 in0.0 mm
09:25 AM 29.1°F-1.6°C 12.8°F-10.7°C 50% 20.0 mph 32.2 kmh 38.0 mph61.2 kmh 29.92 in1013.2 mb 0.00 in0.0 mm 0.00 in0.0 mm 0.00 in0.0 mm
09:30 AM 29.3°F-1.5°C 12.5°F-10.8°C 49% 15.0 mph 24.1 kmh 31.0 mph49.9 kmh 29.92 in1013.2 mb 0.00 in0.0 mm 0.00 in0.0 mm 0.00 in0.0 mm
09:35 AM 29.6°F-1.3°C 12.8°F-10.7°C 49% 14.0 mph 22.5 kmh 39.0 mph62.8 kmh 29.91 in1012.9 mb 0.00 in0.0 mm 0.00 in0.0 mm 0.00 in0.0 mm
09:40 AM 29.8°F-1.2°C 12.5°F-10.8°C 48% 14.0 mph 22.5 kmh 26.0 mph41.8 kmh 29.92 in1013.2 mb 0.00 in0.0 mm 0.00 in0.0 mm 0.00 in0.0 mm
09:45 AM 30.3°F-0.9°C 12.0°F-11.1°C 46% 12.0 mph 19.3 kmh 27.0 mph43.5 kmh 29.92 in1013.2 mb 0.00 in0.0 mm 0.00 in0.0 mm 0.00 in0.0 mm
09:50 AM 30.5°F-0.8°C 11.7°F-11.3°C 45% 13.0 mph 20.9 kmh 27.0 mph43.5 kmh 29.93 in1013.5 mb 0.00 in0.0 mm 0.00 in0.0 mm 0.00 in0.0 mm
09:55 AM 30.6°F-0.8°C 11.8°F-11.2°C 45% 12.0 mph 19.3 kmh 23.0 mph37.0 kmh 29.92 in1013.2 mb 0.00 in0.0 mm 0.00 in0.0 mm 0.00 in0.0 mm
10:00 AM 30.9°F-0.6°C 11.6°F-11.3°C 44% 12.0 mph 19.3 kmh 26.0 mph41.8 kmh 29.91 in1012.9 mb 0.00 in0.0 mm 0.00 in0.0 mm 0.00 in0.0 mm
10:05 AM 31.2°F-0.4°C 11.3°F-11.5°C 43% 14.0 mph 22.5 kmh 30.0 mph48.3 kmh 29.92 in1013.2 mb 0.00 in0.0 mm 0.00 in0.0 mm 0.00 in0.0 mm
10:10 AM 31.6°F-0.2°C 11.2°F-11.6°C 42% 13.0 mph 20.9 kmh 26.0 mph41.8 kmh 29.92 in1013.2 mb 0.00 in0.0 mm 0.00 in0.0 mm 0.00 in0.0 mm
10:15 AM 32.1°F0.1°C 10.0°F-12.2°C 39% 11.0 mph 17.7 kmh 24.0 mph38.6 kmh 29.92 in1013.2 mb 0.00 in0.0 mm 0.00 in0.0 mm 0.00 in0.0 mm
10:20 AM 32.7°F0.4°C 9.9°F-12.3°C 38% 9.0 mph 14.5 kmh 24.0 mph38.6 kmh 29.95 in1014.2 mb 0.00 in0.0 mm 0.00 in0.0 mm 0.00 in0.0 mm
10:25 AM 33.0°F0.6°C 10.8°F-11.8°C 39% 11.0 mph NE17.7 kmh NE 28.0 mph45.1 kmh 29.97 in1014.9 mb 0.00 in0.0 mm 0.00 in0.0 mm 0.00 in0.0 mm
10:30 AM 33.4°F0.8°C 12.8°F-10.7°C 42% 4.0 mph NNE6.4 kmh NNE 13.0 mph20.9 kmh 29.98 in1015.2 mb 0.00 in0.0 mm 0.00 in0.0 mm 0.00 in0.0 mm
10:35 AM 34.0°F1.1°C 11.1°F-11.6°C 38% 4.0 mph NNW6.4 kmh NNW 14.0 mph22.5 kmh 29.98 in1015.2 mb 0.00 in0.0 mm 0.00 in0.0 mm 0.00 in0.0 mm
10:40 AM 34.1°F1.2°C 11.8°F-11.2°C 39% 5.0 mph NNE8.0 kmh NNE 20.0 mph32.2 kmh 29.98 in1015.2 mb 0.00 in0.0 mm 0.00 in0.0 mm 0.00 in0.0 mm
10:45 AM 34.3°F1.3°C 10.8°F-11.8°C 37% 7.0 mph 11.3 kmh 15.0 mph24.1 kmh 29.98 in1015.2 mb 0.00 in0.0 mm 0.00 in0.0 mm 0.00 in0.0 mm
10:50 AM 34.6°F1.4°C 10.4°F-12.0°C 36% 5.0 mph 8.0 kmh 18.0 mph29.0 kmh 29.98 in1015.2 mb 0.00 in0.0 mm 0.00 in0.0 mm 0.00 in0.0 mm
10:55 AM 35.0°F1.7°C 10.1°F-12.2°C 35% 7.0 mph 11.3 kmh 20.0 mph32.2 kmh 29.99 in1015.6 mb 0.00 in0.0 mm 0.00 in0.0 mm 0.00 in0.0 mm
11:00 AM 34.6°F1.4°C 9.8°F-12.3°C 35% 9.0 mph 14.5 kmh 27.0 mph43.5 kmh 29.99 in1015.6 mb 0.00 in0.0 mm 0.00 in0.0 mm 0.00 in0.0 mm
11:05 AM 34.7°F1.5°C 9.9°F-12.3°C 35% 9.0 mph 14.5 kmh 23.0 mph37.0 kmh 29.98 in1015.2 mb 0.00 in0.0 mm 0.00 in0.0 mm 0.00 in0.0 mm
11:10 AM 34.6°F1.4°C 9.1°F-12.7°C 34% 10.0 mph 16.1 kmh 24.0 mph38.6 kmh 29.99 in1015.6 mb 0.00 in0.0 mm 0.00 in0.0 mm 0.00 in0.0 mm
11:15 AM 34.7°F1.5°C 8.6°F-13.0°C 33% 10.0 mph 16.1 kmh 31.0 mph49.9 kmh 29.99 in1015.6 mb 0.00 in0.0 mm 0.00 in0.0 mm 0.00 in0.0 mm
11:20 AM 34.9°F1.6°C 9.4°F-12.6°C 34% 8.0 mph 12.9 kmh 21.0 mph33.8 kmh 29.99 in1015.6 mb 0.00 in0.0 mm 0.00 in0.0 mm 0.00 in0.0 mm
11:25 AM 34.8°F1.6°C 10.0°F-12.2°C 35% 12.0 mph 19.3 kmh 29.0 mph46.7 kmh 29.99 in1015.6 mb 0.00 in0.0 mm 0.00 in0.0 mm 0.00 in0.0 mm
11:30 AM 34.7°F1.5°C 9.9°F-12.3°C 35% 14.0 mph 22.5 kmh 31.0 mph49.9 kmh 30.00 in1015.9 mb 0.00 in0.0 mm 0.00 in0.0 mm 0.00 in0.0 mm
11:35 AM 34.7°F1.5°C 9.2°F-12.7°C 34% 16.0 mph 25.7 kmh 33.0 mph53.1 kmh 30.00 in1015.9 mb 0.00 in0.0 mm 0.00 in0.0 mm 0.00 in0.0 mm
11:40 AM 35.0°F1.7°C 10.1°F-12.2°C 35% 11.0 mph 17.7 kmh 22.0 mph35.4 kmh 30.00 in1015.9 mb 0.00 in0.0 mm 0.00 in0.0 mm 0.00 in0.0 mm
11:45 AM 35.1°F1.7°C 10.9°F-11.7°C 36% 9.0 mph 14.5 kmh 23.0 mph37.0 kmh 30.00 in1015.9 mb 0.00 in0.0 mm 0.00 in0.0 mm 0.00 in0.0 mm
11:50 AM 35.7°F2.1°C 11.4°F-11.4°C 36% 8.0 mph 12.9 kmh 19.0 mph30.6 kmh 30.00 in1015.9 mb 0.00 in0.0 mm 0.00 in0.0 mm 0.00 in0.0 mm
11:55 AM 35.8°F2.1°C 10.9°F-11.7°C 35% 10.0 mph 16.1 kmh 23.0 mph37.0 kmh 30.01 in1016.3 mb 0.00 in0.0 mm 0.00 in0.0 mm 0.00 in0.0 mm
12:00 PM 35.6°F2.0°C 10.0°F-12.2°C 34% 10.0 mph 16.1 kmh 26.0 mph41.8 kmh 30.00 in1015.9 mb 0.00 in0.0 mm 0.00 in0.0 mm 0.00 in0.0 mm
12:05 PM 36.0°F2.2°C 11.0°F-11.7°C 35% 8.0 mph 12.9 kmh 20.0 mph32.2 kmh 29.98 in1015.2 mb 0.00 in0.0 mm 0.00 in0.0 mm 0.00 in0.0 mm
12:10 PM 36.3°F2.4°C 11.3°F-11.5°C 35% 9.0 mph 14.5 kmh 23.0 mph37.0 kmh 29.99 in1015.6 mb 0.00 in0.0 mm 0.00 in0.0 mm 0.00 in0.0 mm
12:15 PM 36.7°F2.6°C 11.0°F-11.7°C 34% 13.0 mph 20.9 kmh 28.0 mph45.1 kmh 29.98 in1015.2 mb 0.00 in0.0 mm 0.00 in0.0 mm 0.00 in0.0 mm
12:20 PM 36.8°F2.7°C 11.7°F-11.3°C 35% 12.0 mph 19.3 kmh 29.0 mph46.7 kmh 29.99 in1015.6 mb 0.00 in0.0 mm 0.00 in0.0 mm 0.00 in0.0 mm
12:25 PM 37.4°F3.0°C 11.6°F-11.3°C 34% 8.0 mph 12.9 kmh 21.0 mph33.8 kmh 29.99 in1015.6 mb 0.00 in0.0 mm 0.00 in0.0 mm 0.00 in0.0 mm
12:30 PM 37.4°F3.0°C 11.6°F-11.3°C 34% 10.0 mph 16.1 kmh 21.0 mph33.8 kmh 30.00 in1015.9 mb 0.00 in0.0 mm 0.00 in0.0 mm 0.00 in0.0 mm
12:35 PM 37.2°F2.9°C 11.4°F-11.4°C 34% 12.0 mph 19.3 kmh 29.0 mph46.7 kmh 30.00 in1015.9 mb 0.00 in0.0 mm 0.00 in0.0 mm 0.00 in0.0 mm
12:40 PM 37.1°F2.8°C 10.7°F-11.8°C 33% 12.0 mph 19.3 kmh 24.0 mph38.6 kmh 30.00 in1015.9 mb 0.00 in0.0 mm 0.00 in0.0 mm 0.00 in0.0 mm
12:45 PM 37.3°F2.9°C 11.5°F-11.4°C 34% 9.0 mph 14.5 kmh 25.0 mph40.2 kmh 30.00 in1015.9 mb 0.00 in0.0 mm 0.00 in0.0 mm 0.00 in0.0 mm
12:50 PM 37.4°F3.0°C 11.6°F-11.3°C 34% 10.0 mph 16.1 kmh 24.0 mph38.6 kmh 30.02 in1016.6 mb 0.00 in0.0 mm 0.00 in0.0 mm 0.00 in0.0 mm
12:55 PM 37.8°F3.2°C 12.0°F-11.1°C 34% 7.0 mph 11.3 kmh 20.0 mph32.2 kmh 30.02 in1016.6 mb 0.00 in0.0 mm 0.00 in0.0 mm 0.00 in0.0 mm
01:00 PM 38.1°F3.4°C 12.2°F-11.0°C 34% 7.0 mph 11.3 kmh 15.0 mph24.1 kmh 30.02 in1016.6 mb 0.00 in0.0 mm 0.00 in0.0 mm 0.00 in0.0 mm
01:05 PM 37.4°F3.0°C 11.6°F-11.3°C 34% 11.0 mph 17.7 kmh 25.0 mph40.2 kmh 30.03 in1016.9 mb 0.00 in0.0 mm 0.00 in0.0 mm 0.00 in0.0 mm
01:10 PM 37.7°F3.2°C 13.2°F-10.4°C 36% 6.0 mph 9.7 kmh 15.0 mph24.1 kmh 30.03 in1016.9 mb 0.00 in0.0 mm 0.00 in0.0 mm 0.00 in0.0 mm
01:15 PM 38.7°F3.7°C 13.4°F-10.3°C 35% 6.0 mph 9.7 kmh 17.0 mph27.4 kmh 30.03 in1016.9 mb 0.00 in0.0 mm 0.00 in0.0 mm 0.00 in0.0 mm
01:20 PM 36.9°F2.7°C 13.7°F-10.2°C 38% 14.0 mph 22.5 kmh 35.0 mph56.3 kmh 30.03 in1016.9 mb 0.00 in0.0 mm 0.00 in0.0 mm 0.00 in0.0 mm
01:25 PM 37.6°F3.1°C 14.3°F-9.8°C 38% 9.0 mph 14.5 kmh 26.0 mph41.8 kmh 30.02 in1016.6 mb 0.00 in0.0 mm 0.00 in0.0 mm 0.00 in0.0 mm
01:30 PM 37.4°F3.0°C 14.7°F-9.6°C 39% 9.0 mph 14.5 kmh 21.0 mph33.8 kmh 30.03 in1016.9 mb 0.00 in0.0 mm 0.00 in0.0 mm 0.00 in0.0 mm
01:35 PM 37.2°F2.9°C 14.0°F-10.0°C 38% 11.0 mph 17.7 kmh 22.0 mph35.4 kmh 30.03 in1016.9 mb 0.00 in0.0 mm 0.00 in0.0 mm 0.00 in0.0 mm
01:40 PM 37.1°F2.8°C 13.9°F-10.1°C 38% 12.0 mph 19.3 kmh 30.0 mph48.3 kmh 30.03 in1016.9 mb 0.00 in0.0 mm 0.00 in0.0 mm 0.00 in0.0 mm
01:45 PM 37.0°F2.8°C 14.4°F-9.8°C 39% 13.0 mph 20.9 kmh 31.0 mph49.9 kmh 30.03 in1016.9 mb 0.00 in0.0 mm 0.00 in0.0 mm 0.00 in0.0 mm
01:50 PM 36.5°F2.5°C 14.5°F-9.7°C 40% 11.0 mph 17.7 kmh 22.0 mph35.4 kmh 30.03 in1016.9 mb 0.00 in0.0 mm 0.00 in0.0 mm 0.00 in0.0 mm
01:55 PM 36.8°F2.7°C 14.8°F-9.6°C 40% 8.0 mph 12.9 kmh 20.0 mph32.2 kmh 30.02 in1016.6 mb 0.00 in0.0 mm 0.00 in0.0 mm 0.00 in0.0 mm
02:00 PM 36.8°F2.7°C 14.8°F-9.6°C 40% 9.0 mph 14.5 kmh 26.0 mph41.8 kmh 30.02 in1016.6 mb 0.00 in0.0 mm 0.00 in0.0 mm 0.00 in0.0 mm
02:05 PM 37.1°F2.8°C 15.6°F-9.1°C 41% 6.0 mph 9.7 kmh 12.0 mph19.3 kmh 30.03 in1016.9 mb 0.00 in0.0 mm 0.00 in0.0 mm 0.00 in0.0 mm
02:10 PM 38.0°F3.3°C 15.8°F-9.0°C 40% 5.0 mph 8.0 kmh 21.0 mph33.8 kmh 30.03 in1016.9 mb 0.00 in0.0 mm 0.00 in0.0 mm 0.00 in0.0 mm
02:15 PM 38.0°F3.3°C 14.7°F-9.6°C 38% 9.0 mph 14.5 kmh 22.0 mph35.4 kmh 30.02 in1016.6 mb 0.00 in0.0 mm 0.00 in0.0 mm 0.00 in0.0 mm
02:20 PM 37.8°F3.2°C 15.1°F-9.4°C 39% 13.0 mph 20.9 kmh 32.0 mph51.5 kmh 30.02 in1016.6 mb 0.00 in0.0 mm 0.00 in0.0 mm 0.00 in0.0 mm
02:25 PM 38.0°F3.3°C 14.7°F-9.6°C 38% 9.0 mph 14.5 kmh 19.0 mph30.6 kmh 30.02 in1016.6 mb 0.00 in0.0 mm 0.00 in0.0 mm 0.00 in0.0 mm
02:30 PM 38.6°F3.7°C 14.6°F-9.7°C 37% 11.0 mph 17.7 kmh 21.0 mph33.8 kmh 30.01 in1016.3 mb 0.00 in0.0 mm 0.00 in0.0 mm 0.00 in0.0 mm
02:35 PM 38.6°F3.7°C 14.6°F-9.7°C 37% 13.0 mph 20.9 kmh 33.0 mph53.1 kmh 30.01 in1016.3 mb 0.00 in0.0 mm 0.00 in0.0 mm 0.00 in0.0 mm
02:40 PM 38.5°F3.6°C 13.9°F-10.1°C 36% 15.0 mph 24.1 kmh 31.0 mph49.9 kmh 30.00 in1015.9 mb 0.00 in0.0 mm 0.00 in0.0 mm 0.00 in0.0 mm
02:45 PM 38.7°F3.7°C 14.1°F-9.9°C 36% 13.0 mph 20.9 kmh 34.0 mph54.7 kmh 30.00 in1015.9 mb 0.00 in0.0 mm 0.00 in0.0 mm 0.00 in0.0 mm
02:50 PM 39.0°F3.9°C 14.3°F-9.8°C 36% 14.0 mph 22.5 kmh 32.0 mph51.5 kmh 30.00 in1015.9 mb 0.00 in0.0 mm 0.00 in0.0 mm 0.00 in0.0 mm
02:55 PM 39.1°F3.9°C 14.4°F-9.8°C 36% 12.0 mph 19.3 kmh 24.0 mph38.6 kmh 30.00 in1015.9 mb 0.00 in0.0 mm 0.00 in0.0 mm 0.00 in0.0 mm
03:00 PM 39.1°F3.9°C 14.4°F-9.8°C 36% 11.0 mph 17.7 kmh 21.0 mph33.8 kmh 30.00 in1015.9 mb 0.00 in0.0 mm 0.00 in0.0 mm 0.00 in0.0 mm
03:05 PM 39.0°F3.9°C 15.0°F-9.4°C 37% 14.0 mph 22.5 kmh 31.0 mph49.9 kmh 30.01 in1016.3 mb 0.00 in0.0 mm 0.00 in0.0 mm 0.00 in0.0 mm
03:10 PM 39.2°F4.0°C 14.5°F-9.7°C 36% 14.0 mph 22.5 kmh 36.0 mph57.9 kmh 30.02 in1016.6 mb 0.00 in0.0 mm 0.00 in0.0 mm 0.00 in0.0 mm
03:15 PM 39.6°F4.2°C 14.9°F-9.5°C 36% 9.0 mph 14.5 kmh 18.0 mph29.0 kmh 30.02 in1016.6 mb 0.00 in0.0 mm 0.00 in0.0 mm 0.00 in0.0 mm
03:20 PM 39.8°F4.3°C 15.0°F-9.4°C 36% 9.0 mph 14.5 kmh 28.0 mph45.1 kmh 30.02 in1016.6 mb 0.00 in0.0 mm 0.00 in0.0 mm 0.00 in0.0 mm
03:25 PM 39.6°F4.2°C 14.9°F-9.5°C 36% 12.0 mph 19.3 kmh 29.0 mph46.7 kmh 30.02 in1016.6 mb 0.00 in0.0 mm 0.00 in0.0 mm 0.00 in0.0 mm
03:30 PM 39.3°F4.1°C 15.2°F-9.3°C 37% 13.0 mph 20.9 kmh 34.0 mph54.7 kmh 30.02 in1016.6 mb 0.00 in0.0 mm 0.00 in0.0 mm 0.00 in0.0 mm
03:35 PM 39.0°F3.9°C 16.2°F-8.8°C 39% 13.0 mph 20.9 kmh 28.0 mph45.1 kmh 30.02 in1016.6 mb 0.00 in0.0 mm 0.00 in0.0 mm 0.00 in0.0 mm
03:40 PM 38.6°F3.7°C 15.8°F-9.0°C 39% 16.0 mph 25.7 kmh 34.0 mph54.7 kmh 30.03 in1016.9 mb 0.00 in0.0 mm 0.00 in0.0 mm 0.00 in0.0 mm
03:45 PM 38.3°F3.5°C 15.5°F-9.2°C 39% 13.0 mph 20.9 kmh 29.0 mph46.7 kmh 30.03 in1016.9 mb 0.00 in0.0 mm 0.00 in0.0 mm 0.00 in0.0 mm
03:50 PM 38.7°F3.7°C 15.3°F-9.3°C 38% 13.0 mph 20.9 kmh 34.0 mph54.7 kmh 30.04 in1017.3 mb 0.00 in0.0 mm 0.00 in0.0 mm 0.00 in0.0 mm
03:55 PM 38.9°F3.8°C 14.2°F-9.9°C 36% 16.0 mph 25.7 kmh 31.0 mph49.9 kmh 30.04 in1017.3 mb 0.00 in0.0 mm 0.00 in0.0 mm 0.00 in0.0 mm
04:00 PM 39.5°F4.2°C 14.8°F-9.6°C 36% 10.0 mph 16.1 kmh 19.0 mph30.6 kmh 30.03 in1016.9 mb 0.00 in0.0 mm 0.00 in0.0 mm 0.00 in0.0 mm
04:05 PM 40.3°F4.6°C 16.1°F-8.8°C 37% 5.0 mph 8.0 kmh 14.0 mph22.5 kmh 30.04 in1017.3 mb 0.00 in0.0 mm 0.00 in0.0 mm 0.00 in0.0 mm
04:10 PM 40.7°F4.8°C 16.5°F-8.6°C 37% 5.0 mph 8.0 kmh 10.0 mph16.1 kmh 30.04 in1017.3 mb 0.00 in0.0 mm 0.00 in0.0 mm 0.00 in0.0 mm
04:15 PM 40.9°F4.9°C 15.4°F-9.2°C 35% 5.0 mph 8.0 kmh 15.0 mph24.1 kmh 30.04 in1017.3 mb 0.00 in0.0 mm 0.00 in0.0 mm 0.00 in0.0 mm
04:20 PM 41.7°F5.4°C 16.1°F-8.8°C 35% 3.0 mph 4.8 kmh 13.0 mph20.9 kmh 30.05 in1017.6 mb 0.00 in0.0 mm 0.00 in0.0 mm 0.00 in0.0 mm
04:25 PM 41.2°F5.1°C 15.0°F-9.4°C 34% 7.0 mph 11.3 kmh 23.0 mph37.0 kmh 30.04 in1017.3 mb 0.00 in0.0 mm 0.00 in0.0 mm 0.00 in0.0 mm
04:30 PM 40.0°F4.4°C 14.6°F-9.7°C 35% 7.0 mph 11.3 kmh 15.0 mph24.1 kmh 30.04 in1017.3 mb 0.00 in0.0 mm 0.00 in0.0 mm 0.00 in0.0 mm
04:35 PM 39.7°F4.3°C 14.3°F-9.8°C 35% 4.0 mph 6.4 kmh 14.0 mph22.5 kmh 30.05 in1017.6 mb 0.00 in0.0 mm 0.00 in0.0 mm 0.00 in0.0 mm
04:40 PM 40.6°F4.8°C 15.1°F-9.4°C 35% 2.0 mph 3.2 kmh 7.0 mph11.3 kmh 30.05 in1017.6 mb 0.00 in0.0 mm 0.00 in0.0 mm 0.00 in0.0 mm
04:45 PM 41.0°F5.0°C 14.8°F-9.6°C 34% 3.0 mph 4.8 kmh 9.0 mph14.5 kmh 30.06 in1017.9 mb 0.00 in0.0 mm 0.00 in0.0 mm 0.00 in0.0 mm
04:50 PM 41.0°F5.0°C 14.8°F-9.6°C 34% 4.0 mph 6.4 kmh 11.0 mph17.7 kmh 30.06 in1017.9 mb 0.00 in0.0 mm 0.00 in0.0 mm 0.00 in0.0 mm
04:55 PM 40.7°F4.8°C 13.9°F-10.1°C 33% 5.0 mph 8.0 kmh 13.0 mph20.9 kmh 30.07 in1018.3 mb 0.00 in0.0 mm 0.00 in0.0 mm 0.00 in0.0 mm
05:00 PM 40.4°F4.7°C 13.6°F-10.2°C 33% 6.0 mph 9.7 kmh 13.0 mph20.9 kmh 30.07 in1018.3 mb 0.00 in0.0 mm 0.00 in0.0 mm 0.00 in0.0 mm
05:05 PM 40.0°F4.4°C 13.9°F-10.1°C 34% 5.0 mph 8.0 kmh 10.0 mph16.1 kmh 30.08 in1018.6 mb 0.00 in0.0 mm 0.00 in0.0 mm 0.00 in0.0 mm
05:10 PM 39.5°F4.2°C 14.1°F-9.9°C 35% 6.0 mph 9.7 kmh 12.0 mph19.3 kmh 30.08 in1018.6 mb 0.00 in0.0 mm 0.00 in0.0 mm 0.00 in0.0 mm
05:15 PM 38.6°F3.7°C 14.6°F-9.7°C 37% 8.0 mph 12.9 kmh 22.0 mph35.4 kmh 30.08 in1018.6 mb 0.00 in0.0 mm 0.00 in0.0 mm 0.00 in0.0 mm
05:20 PM 38.2°F3.4°C 14.9°F-9.5°C 38% 7.0 mph 11.3 kmh 14.0 mph22.5 kmh 30.08 in1018.6 mb 0.00 in0.0 mm 0.00 in0.0 mm 0.00 in0.0 mm
05:25 PM 37.9°F3.3°C 14.6°F-9.7°C 38% 9.0 mph 14.5 kmh 21.0 mph33.8 kmh 30.08 in1018.6 mb 0.00 in0.0 mm 0.00 in0.0 mm 0.00 in0.0 mm
05:30 PM 37.4°F3.0°C 13.5°F-10.3°C 37% 14.0 mph 22.5 kmh 29.0 mph46.7 kmh 30.08 in1018.6 mb 0.00 in0.0 mm 0.00 in0.0 mm 0.00 in0.0 mm
05:35 PM 37.0°F2.8°C 13.8°F-10.1°C 38% 7.0 mph 11.3 kmh 17.0 mph27.4 kmh 30.08 in1018.6 mb 0.00 in0.0 mm 0.00 in0.0 mm 0.00 in0.0 mm
05:40 PM 36.8°F2.7°C 13.0°F-10.6°C 37% 8.0 mph 12.9 kmh 17.0 mph27.4 kmh 30.08 in1018.6 mb 0.00 in0.0 mm 0.00 in0.0 mm 0.00 in0.0 mm
05:45 PM 36.7°F2.6°C 12.9°F-10.6°C 37% 5.0 mph 8.0 kmh 16.0 mph25.7 kmh 30.08 in1018.6 mb 0.00 in0.0 mm 0.00 in0.0 mm 0.00 in0.0 mm
05:50 PM 36.5°F2.5°C 12.1°F-11.1°C 36% 7.0 mph 11.3 kmh 19.0 mph30.6 kmh 30.07 in1018.3 mb 0.00 in0.0 mm 0.00 in0.0 mm 0.00 in0.0 mm
05:55 PM 36.5°F2.5°C 12.7°F-10.7°C 37% 11.0 mph 17.7 kmh 24.0 mph38.6 kmh 30.07 in1018.3 mb 0.00 in0.0 mm 0.00 in0.0 mm 0.00 in0.0 mm
06:00 PM 36.2°F2.3°C 13.7°F-10.2°C 39% 15.0 mph 24.1 kmh 29.0 mph46.7 kmh 30.07 in1018.3 mb 0.00 in0.0 mm 0.00 in0.0 mm 0.00 in0.0 mm
06:05 PM 36.1°F2.3°C 14.1°F-9.9°C 40% 18.0 mph 29.0 kmh 37.0 mph59.5 kmh 30.07 in1018.3 mb 0.00 in0.0 mm 0.00 in0.0 mm 0.00 in0.0 mm
06:10 PM 35.9°F2.2°C 15.1°F-9.4°C 42% 12.0 mph 19.3 kmh 23.0 mph37.0 kmh 30.08 in1018.6 mb 0.00 in0.0 mm 0.00 in0.0 mm 0.00 in0.0 mm
06:15 PM 35.6°F2.0°C 14.8°F-9.6°C 42% 8.0 mph 12.9 kmh 18.0 mph29.0 kmh 30.07 in1018.3 mb 0.00 in0.0 mm 0.00 in0.0 mm 0.00 in0.0 mm
06:20 PM 35.6°F2.0°C 14.8°F-9.6°C 42% 7.0 mph 11.3 kmh 12.0 mph19.3 kmh 30.07 in1018.3 mb 0.00 in0.0 mm 0.00 in0.0 mm 0.00 in0.0 mm
06:25 PM 35.5°F1.9°C 14.7°F-9.6°C 42% 5.0 mph 8.0 kmh 9.0 mph14.5 kmh 30.07 in1018.3 mb 0.00 in0.0 mm 0.00 in0.0 mm 0.00 in0.0 mm
06:30 PM 35.2°F1.8°C 15.0°F-9.4°C 43% 5.0 mph 8.0 kmh 12.0 mph19.3 kmh 30.07 in1018.3 mb 0.00 in0.0 mm 0.00 in0.0 mm 0.00 in0.0 mm
06:35 PM 35.2°F1.8°C 15.0°F-9.4°C 43% 7.0 mph 11.3 kmh 21.0 mph33.8 kmh 30.06 in1017.9 mb 0.00 in0.0 mm 0.00 in0.0 mm 0.00 in0.0 mm
06:40 PM 35.3°F1.8°C 14.5°F-9.7°C 42% 7.0 mph 11.3 kmh 14.0 mph22.5 kmh 30.05 in1017.6 mb 0.00 in0.0 mm 0.00 in0.0 mm 0.00 in0.0 mm
06:45 PM 35.2°F1.8°C 14.4°F-9.8°C 42% 8.0 mph 12.9 kmh 13.0 mph20.9 kmh 30.05 in1017.6 mb 0.00 in0.0 mm 0.00 in0.0 mm 0.00 in0.0 mm
06:50 PM 35.0°F1.7°C 14.3°F-9.8°C 42% 7.0 mph 11.3 kmh 15.0 mph24.1 kmh 30.04 in1017.3 mb 0.00 in0.0 mm 0.00 in0.0 mm 0.00 in0.0 mm
06:55 PM 35.3°F1.8°C 12.8°F-10.7°C 39% 8.0 mph 12.9 kmh 16.0 mph25.7 kmh 30.04 in1017.3 mb 0.00 in0.0 mm 0.00 in0.0 mm 0.00 in0.0 mm
07:00 PM 35.7°F2.1°C 12.0°F-11.1°C 37% 7.0 mph 11.3 kmh 13.0 mph20.9 kmh 30.04 in1017.3 mb 0.00 in0.0 mm 0.00 in0.0 mm 0.00 in0.0 mm
07:05 PM 36.1°F2.3°C 11.1°F-11.6°C 35% 9.0 mph 14.5 kmh 17.0 mph27.4 kmh 30.04 in1017.3 mb 0.00 in0.0 mm 0.00 in0.0 mm 0.00 in0.0 mm
07:10 PM 36.5°F2.5°C 9.5°F-12.5°C 32% 7.0 mph 11.3 kmh 11.0 mph17.7 kmh 30.04 in1017.3 mb 0.00 in0.0 mm 0.00 in0.0 mm 0.00 in0.0 mm
07:15 PM 36.8°F2.7°C 9.0°F-12.8°C 31% 7.0 mph 11.3 kmh 12.0 mph19.3 kmh 30.04 in1017.3 mb 0.00 in0.0 mm 0.00 in0.0 mm 0.00 in0.0 mm
07:20 PM 37.2°F2.9°C 7.9°F-13.4°C 29% 5.0 mph 8.0 kmh 11.0 mph17.7 kmh 30.05 in1017.6 mb 0.00 in0.0 mm 0.00 in0.0 mm 0.00 in0.0 mm
07:25 PM 37.2°F2.9°C 7.1°F-13.8°C 28% 3.0 mph 4.8 kmh 9.0 mph14.5 kmh 30.06 in1017.9 mb 0.00 in0.0 mm 0.00 in0.0 mm 0.00 in0.0 mm
07:30 PM 37.1°F2.8°C 7.8°F-13.4°C 29% 2.0 mph 3.2 kmh 7.0 mph11.3 kmh 30.06 in1017.9 mb 0.00 in0.0 mm 0.00 in0.0 mm 0.00 in0.0 mm
07:35 PM 36.1°F2.3°C 11.8°F-11.2°C 36% 6.0 mph NE9.7 kmh NE 11.0 mph17.7 kmh 30.07 in1018.3 mb 0.00 in0.0 mm 0.00 in0.0 mm 0.00 in0.0 mm
07:40 PM 34.9°F1.6°C 10.7°F-11.8°C 36% 3.0 mph ENE4.8 kmh ENE 7.0 mph11.3 kmh 30.07 in1018.3 mb 0.00 in0.0 mm 0.00 in0.0 mm 0.00 in0.0 mm
07:45 PM 34.5°F1.4°C 10.3°F-12.1°C 36% 2.0 mph SE3.2 kmh SE 6.0 mph9.7 kmh 30.07 in1018.3 mb 0.00 in0.0 mm 0.00 in0.0 mm 0.00 in0.0 mm
07:50 PM 34.7°F1.5°C 8.6°F-13.0°C 33% 3.0 mph 4.8 kmh 8.0 mph12.9 kmh 30.07 in1018.3 mb 0.00 in0.0 mm 0.00 in0.0 mm 0.00 in0.0 mm
07:55 PM 34.8°F1.6°C 11.2°F-11.6°C 37% 2.0 mph NNE3.2 kmh NNE 7.0 mph11.3 kmh 30.07 in1018.3 mb 0.00 in0.0 mm 0.00 in0.0 mm 0.00 in0.0 mm
08:00 PM 35.0°F1.7°C 7.5°F-13.6°C 31% 5.0 mph 8.0 kmh 12.0 mph19.3 kmh 30.06 in1017.9 mb 0.00 in0.0 mm 0.00 in0.0 mm 0.00 in0.0 mm
08:05 PM 36.3°F2.4°C 7.9°F-13.4°C 30% 7.0 mph 11.3 kmh 18.0 mph29.0 kmh 30.07 in1018.3 mb 0.00 in0.0 mm 0.00 in0.0 mm 0.00 in0.0 mm
08:10 PM 36.4°F2.4°C 8.0°F-13.3°C 30% 6.0 mph 9.7 kmh 13.0 mph20.9 kmh 30.06 in1017.9 mb 0.00 in0.0 mm 0.00 in0.0 mm 0.00 in0.0 mm
08:15 PM 36.8°F2.7°C 7.6°F-13.6°C 29% 8.0 mph 12.9 kmh 13.0 mph20.9 kmh 30.06 in1017.9 mb 0.00 in0.0 mm 0.00 in0.0 mm 0.00 in0.0 mm
08:20 PM 36.9°F2.7°C 7.6°F-13.6°C 29% 7.0 mph 11.3 kmh 14.0 mph22.5 kmh 30.06 in1017.9 mb 0.00 in0.0 mm 0.00 in0.0 mm 0.00 in0.0 mm
08:25 PM 37.3°F2.9°C 7.2°F-13.8°C 28% 9.0 mph 14.5 kmh 15.0 mph24.1 kmh 30.05 in1017.6 mb 0.00 in0.0 mm 0.00 in0.0 mm 0.00 in0.0 mm
08:30 PM 37.6°F3.1°C 7.5°F-13.6°C 28% 8.0 mph 12.9 kmh 14.0 mph22.5 kmh 30.05 in1017.6 mb 0.00 in0.0 mm 0.00 in0.0 mm 0.00 in0.0 mm
08:35 PM 37.5°F3.1°C 7.4°F-13.7°C 28% 6.0 mph 9.7 kmh 12.0 mph19.3 kmh 30.04 in1017.3 mb 0.00 in0.0 mm 0.00 in0.0 mm 0.00 in0.0 mm
08:40 PM 37.7°F3.2°C 7.6°F-13.6°C 28% 7.0 mph 11.3 kmh 15.0 mph24.1 kmh 30.05 in1017.6 mb 0.00 in0.0 mm 0.00 in0.0 mm 0.00 in0.0 mm
08:45 PM 38.4°F3.6°C 7.4°F-13.7°C 27% 10.0 mph 16.1 kmh 22.0 mph35.4 kmh 30.04 in1017.3 mb 0.00 in0.0 mm 0.00 in0.0 mm 0.00 in0.0 mm
08:50 PM 39.0°F3.9°C 7.1°F-13.8°C 26% 11.0 mph 17.7 kmh 23.0 mph37.0 kmh 30.04 in1017.3 mb 0.00 in0.0 mm 0.00 in0.0 mm 0.00 in0.0 mm
08:55 PM 39.1°F3.9°C 7.1°F-13.8°C 26% 9.0 mph 14.5 kmh 16.0 mph25.7 kmh 30.04 in1017.3 mb 0.00 in0.0 mm 0.00 in0.0 mm 0.00 in0.0 mm
09:00 PM 39.8°F4.3°C 7.7°F-13.5°C 26% 13.0 mph 20.9 kmh 25.0 mph40.2 kmh 30.04 in1017.3 mb 0.00 in0.0 mm 0.00 in0.0 mm 0.00 in0.0 mm
09:05 PM 40.1°F4.5°C 8.0°F-13.3°C 26% 11.0 mph 17.7 kmh 20.0 mph32.2 kmh 30.04 in1017.3 mb 0.00 in0.0 mm 0.00 in0.0 mm 0.00 in0.0 mm
09:10 PM 40.3°F4.6°C 8.2°F-13.2°C 26% 14.0 mph 22.5 kmh 27.0 mph43.5 kmh 30.03 in1016.9 mb 0.00 in0.0 mm 0.00 in0.0 mm 0.00 in0.0 mm
09:15 PM 40.7°F4.8°C 8.5°F-13.1°C 26% 18.0 mph 29.0 kmh 29.0 mph46.7 kmh 30.03 in1016.9 mb 0.00 in0.0 mm 0.00 in0.0 mm 0.00 in0.0 mm
09:20 PM 40.6°F4.8°C 7.6°F-13.6°C 25% 18.0 mph 29.0 kmh 33.0 mph53.1 kmh 30.02 in1016.6 mb 0.00 in0.0 mm 0.00 in0.0 mm 0.00 in0.0 mm
09:25 PM 40.7°F4.8°C 7.7°F-13.5°C 25% 20.0 mph 32.2 kmh 32.0 mph51.5 kmh 30.01 in1016.3 mb 0.00 in0.0 mm 0.00 in0.0 mm 0.00 in0.0 mm
09:30 PM 40.6°F4.8°C 7.6°F-13.6°C 25% 22.0 mph 35.4 kmh 35.0 mph56.3 kmh 30.01 in1016.3 mb 0.00 in0.0 mm 0.00 in0.0 mm 0.00 in0.0 mm
09:35 PM 40.5°F4.7°C 8.3°F-13.2°C 26% 23.0 mph 37.0 kmh 42.0 mph67.6 kmh 30.02 in1016.6 mb 0.00 in0.0 mm 0.00 in0.0 mm 0.00 in0.0 mm
09:40 PM 40.3°F4.6°C 9.0°F-12.8°C 27% 22.0 mph 35.4 kmh 34.0 mph54.7 kmh 30.02 in1016.6 mb 0.00 in0.0 mm 0.00 in0.0 mm 0.00 in0.0 mm
09:45 PM 40.5°F4.7°C 9.2°F-12.7°C 27% 22.0 mph 35.4 kmh 36.0 mph57.9 kmh 30.03 in1016.9 mb 0.00 in0.0 mm 0.00 in0.0 mm 0.00 in0.0 mm
09:50 PM 40.2°F4.6°C 9.7°F-12.4°C 28% 17.0 mph 27.4 kmh 32.0 mph51.5 kmh 30.04 in1017.3 mb 0.00 in0.0 mm 0.00 in0.0 mm 0.00 in0.0 mm
09:55 PM 40.1°F4.5°C 10.4°F-12.0°C 29% 16.0 mph 25.7 kmh 25.0 mph40.2 kmh 30.04 in1017.3 mb 0.00 in0.0 mm 0.00 in0.0 mm 0.00 in0.0 mm
10:00 PM 40.1°F4.5°C 10.4°F-12.0°C 29% 15.0 mph 24.1 kmh 25.0 mph40.2 kmh 30.04 in1017.3 mb 0.00 in0.0 mm 0.00 in0.0 mm 0.00 in0.0 mm
10:05 PM 39.9°F4.4°C 11.0°F-11.7°C 30% 11.0 mph 17.7 kmh 23.0 mph37.0 kmh 30.04 in1017.3 mb 0.00 in0.0 mm 0.00 in0.0 mm 0.00 in0.0 mm
10:10 PM 39.9°F4.4°C 11.0°F-11.7°C 30% 15.0 mph 24.1 kmh 27.0 mph43.5 kmh 30.04 in1017.3 mb 0.00 in0.0 mm 0.00 in0.0 mm 0.00 in0.0 mm
10:15 PM 39.9°F4.4°C 12.5°F-10.8°C 32% 17.0 mph 27.4 kmh 26.0 mph41.8 kmh 30.04 in1017.3 mb 0.00 in0.0 mm 0.00 in0.0 mm 0.00 in0.0 mm
10:20 PM 40.0°F4.4°C 13.2°F-10.4°C 33% 17.0 mph 27.4 kmh 29.0 mph46.7 kmh 30.03 in1016.9 mb 0.00 in0.0 mm 0.00 in0.0 mm 0.00 in0.0 mm
10:25 PM 40.1°F4.5°C 13.3°F-10.4°C 33% 18.0 mph 29.0 kmh 34.0 mph54.7 kmh 30.03 in1016.9 mb 0.00 in0.0 mm 0.00 in0.0 mm 0.00 in0.0 mm
10:30 PM 40.1°F4.5°C 14.0°F-10.0°C 34% 20.0 mph 32.2 kmh 37.0 mph59.5 kmh 30.03 in1016.9 mb 0.00 in0.0 mm 0.00 in0.0 mm 0.00 in0.0 mm
10:35 PM 40.2°F4.6°C 14.1°F-9.9°C 34% 21.0 mph 33.8 kmh 32.0 mph51.5 kmh 30.03 in1016.9 mb 0.00 in0.0 mm 0.00 in0.0 mm 0.00 in0.0 mm
10:40 PM 40.0°F4.4°C 14.6°F-9.7°C 35% 18.0 mph 29.0 kmh 35.0 mph56.3 kmh 30.03 in1016.9 mb 0.00 in0.0 mm 0.00 in0.0 mm 0.00 in0.0 mm
10:45 PM 40.0°F4.4°C 14.6°F-9.7°C 35% 19.0 mph 30.6 kmh 29.0 mph46.7 kmh 30.04 in1017.3 mb 0.00 in0.0 mm 0.00 in0.0 mm 0.00 in0.0 mm
10:50 PM 40.1°F4.5°C 15.3°F-9.3°C 36% 19.0 mph 30.6 kmh 28.0 mph45.1 kmh 30.04 in1017.3 mb 0.00 in0.0 mm 0.00 in0.0 mm 0.00 in0.0 mm
10:55 PM 40.0°F4.4°C 15.2°F-9.3°C 36% 15.0 mph 24.1 kmh 26.0 mph41.8 kmh 30.04 in1017.3 mb 0.00 in0.0 mm 0.00 in0.0 mm 0.00 in0.0 mm
11:00 PM 40.0°F4.4°C 15.2°F-9.3°C 36% 17.0 mph 27.4 kmh 27.0 mph43.5 kmh 30.04 in1017.3 mb 0.00 in0.0 mm 0.00 in0.0 mm 0.00 in0.0 mm
11:05 PM 39.8°F4.3°C 15.7°F-9.1°C 37% 12.0 mph 19.3 kmh 20.0 mph32.2 kmh 30.05 in1017.6 mb 0.00 in0.0 mm 0.00 in0.0 mm 0.00 in0.0 mm
11:10 PM 39.8°F4.3°C 15.7°F-9.1°C 37% 11.0 mph 17.7 kmh 17.0 mph27.4 kmh 30.04 in1017.3 mb 0.00 in0.0 mm 0.00 in0.0 mm 0.00 in0.0 mm
11:15 PM 39.8°F4.3°C 15.7°F-9.1°C 37% 11.0 mph 17.7 kmh 20.0 mph32.2 kmh 30.04 in1017.3 mb 0.00 in0.0 mm 0.00 in0.0 mm 0.00 in0.0 mm
11:20 PM 39.7°F4.3°C 15.6°F-9.1°C 37% 10.0 mph 16.1 kmh 21.0 mph33.8 kmh 30.04 in1017.3 mb 0.00 in0.0 mm 0.00 in0.0 mm 0.00 in0.0 mm
11:25 PM 39.8°F4.3°C 15.7°F-9.1°C 37% 13.0 mph 20.9 kmh 22.0 mph35.4 kmh 30.04 in1017.3 mb 0.00 in0.0 mm 0.00 in0.0 mm 0.00 in0.0 mm
11:30 PM 39.9°F4.4°C 15.1°F-9.4°C 36% 16.0 mph 25.7 kmh 28.0 mph45.1 kmh 30.04 in1017.3 mb 0.00 in0.0 mm 0.00 in0.0 mm 0.00 in0.0 mm
11:35 PM 39.8°F4.3°C 15.0°F-9.4°C 36% 13.0 mph 20.9 kmh 25.0 mph40.2 kmh 30.05 in1017.6 mb 0.00 in0.0 mm 0.00 in0.0 mm 0.00 in0.0 mm
11:40 PM 39.7°F4.3°C 15.6°F-9.1°C 37% 12.0 mph 19.3 kmh 19.0 mph30.6 kmh 30.04 in1017.3 mb 0.00 in0.0 mm 0.00 in0.0 mm 0.00 in0.0 mm
11:45 PM 39.6°F4.2°C 14.9°F-9.5°C 36% 13.0 mph 20.9 kmh 23.0 mph37.0 kmh 30.04 in1017.3 mb 0.00 in0.0 mm 0.00 in0.0 mm 0.00 in0.0 mm
11:50 PM 39.6°F4.2°C 15.5°F-9.2°C 37% 12.0 mph 19.3 kmh 20.0 mph32.2 kmh 30.05 in1017.6 mb 0.00 in0.0 mm 0.00 in0.0 mm 0.00 in0.0 mm
11:55 PM 39.7°F4.3°C 15.6°F-9.1°C 37% 13.0 mph 20.9 kmh 22.0 mph35.4 kmh 30.05 in1017.6 mb 0.00 in0.0 mm 0.00 in0.0 mm 0.00 in0.0 mm